Strona główna
METAR-TAF:

METAR-TAF

Lotnisko :

Port lotniczy Chongqing-Jiangbei

Chongqing, Chiny

Szerokość geograficzna: 29-31N, Długość geograficzna: 106-29E, wysokość: 351 m

Aktualna obserwacja pogody

Raport powstał 44 minut temu, godzina 23:00 UTC
Wiatr 4 kt od południe
Temperatura 8°C
Wilgotność 76%
Ciśnienie 1019 hPa
Widzialność 10 km lub więcej
Brak chmur poniżej 1500 m i brak chmur cumulonimbus

METAR: ZUCK 192300Z 19002MPS CAVOK 08/04 Q1019 NOSIG

czas: 07:44 (23:44 UTC)

Prognoza

Raport powstał 4 godziny i 43 minut temu, godzina 19:01 UTC
Prognoza ważna od 20 godzina 00 UTC do 20 godzina 24 UTC
Wiatr 6 kt od północny wschód
Widzialność: 5000 m
Rozproszone chmury na wysokości 5000 ft
zamglenie

TAF: ZUCK 191901Z 2000/2024 04003MPS 5000 BR SCT050 TX11/2008Z TN08/2022Z

Obserwacja i prognoza pogody dla ponad 4000 lotnisk (raport METAR i TAF).

Dostępne stacje oznaczono żółtymi i czerwonymi punktami na mapie.

Najedź kursorem aby zobaczyć nazwę stacji.

Kliknij aby zobaczyć obserwacje i prognozy pogody.

Aby zmienić mapę: kliknij na zielony przycisk z czarnym krzyżykiem, aby powiększyć; na zielony przycisk z myślnikiem, aby pomniejszyć; na zielone strzałki, aby przejść do map sąsiednich.


METAR-TAF: